createdAt,value
2023-04-18T00:02:36.478Z,20.08
2023-04-18T00:05:41.710Z,16.55
2023-04-18T00:08:47.348Z,15.70
2023-04-18T00:11:52.704Z,17.45
2023-04-18T00:14:58.823Z,16.92
2023-04-18T00:18:06.225Z,18.80
2023-04-18T00:21:10.730Z,18.80
2023-04-18T00:24:14.783Z,19.85
2023-04-18T00:27:18.908Z,17.02
2023-04-18T00:30:24.801Z,24.60
2023-04-18T00:33:28.552Z,20.20
2023-04-18T00:36:32.146Z,22.50
2023-04-18T00:39:36.855Z,22.90
2023-04-18T00:42:40.565Z,25.52
2023-04-18T00:45:45.918Z,20.55
2023-04-18T00:48:50.938Z,22.13
2023-04-18T00:51:57.805Z,22.67
2023-04-18T00:55:03.445Z,21.88
2023-04-18T00:58:07.345Z,21.98
2023-04-18T01:01:18.043Z,26.50
2023-04-18T01:04:22.960Z,31.67
2023-04-18T01:07:28.294Z,27.45
2023-04-18T01:10:33.666Z,27.50
2023-04-18T01:13:37.418Z,25.70
2023-04-18T01:16:44.313Z,26.40
2023-04-18T01:19:52.287Z,26.35
2023-04-18T01:22:58.146Z,25.83
2023-04-18T01:26:05.283Z,26.77
2023-04-18T01:29:08.941Z,22.25
2023-04-18T01:32:13.867Z,25.90
2023-04-18T01:35:17.763Z,29.42
2023-04-18T01:38:22.102Z,34.67
2023-04-18T01:41:32.708Z,29.00
2023-04-18T01:44:36.843Z,28.25
2023-04-18T01:47:41.181Z,28.20
2023-04-18T01:50:48.321Z,29.67
2023-04-18T01:53:52.959Z,29.02
2023-04-18T01:56:58.867Z,27.55
2023-04-18T02:00:02.580Z,27.85
2023-04-18T02:03:13.552Z,32.03
2023-04-18T02:06:17.463Z,29.00
2023-04-18T02:09:22.402Z,25.60
2023-04-18T02:12:30.583Z,28.13
2023-04-18T02:15:37.464Z,31.02
2023-04-18T02:18:48.668Z,26.67
2023-04-18T02:21:55.811Z,25.45
2023-04-18T02:25:00.645Z,28.75
2023-04-18T02:28:06.299Z,27.90
2023-04-18T02:31:14.903Z,26.67
2023-04-18T02:34:18.634Z,26.27
2023-04-18T02:37:25.717Z,27.60
2023-04-18T02:40:31.537Z,33.63
2023-04-18T02:43:37.774Z,29.95
2023-04-18T02:46:42.952Z,26.85
2023-04-18T02:49:49.764Z,27.42
2023-04-18T02:52:54.346Z,26.20
2023-04-18T02:56:01.790Z,30.10
2023-04-18T02:59:25.297Z,31.92
2023-04-18T03:02:43.510Z,28.63
2023-04-18T03:06:01.721Z,28.98
2023-04-18T03:09:10.913Z,31.02
2023-04-18T03:12:22.885Z,32.33
2023-04-18T03:15:28.191Z,27.05
2023-04-18T03:18:33.266Z,25.95
2023-04-18T03:21:39.576Z,26.67
2023-04-18T03:24:43.571Z,33.70
2023-04-18T03:27:48.635Z,30.45
2023-04-18T03:30:58.974Z,29.92
2023-04-18T03:34:04.886Z,30.05
2023-04-18T03:37:13.185Z,25.85
2023-04-18T03:40:23.565Z,30.85
2023-04-18T03:43:31.252Z,24.88
2023-04-18T03:46:38.053Z,25.85
2023-04-18T03:49:42.476Z,26.30
2023-04-18T03:52:46.211Z,23.70
2023-04-18T03:55:52.944Z,23.77
2023-04-18T03:59:00.170Z,22.60
2023-04-18T04:02:06.565Z,26.98
2023-04-18T04:05:11.718Z,27.63
2023-04-18T04:08:17.155Z,24.27
2023-04-18T04:11:22.002Z,21.65
2023-04-18T04:14:25.886Z,23.92
2023-04-18T04:17:32.254Z,25.52
2023-04-18T04:20:36.260Z,24.20
2023-04-18T04:23:49.268Z,20.95
2023-04-18T04:27:06.135Z,24.85
2023-04-18T04:30:14.272Z,22.58
2023-04-18T04:33:21.364Z,29.42
2023-04-18T04:36:28.864Z,17.25
2023-04-18T04:39:36.120Z,21.88
2023-04-18T04:43:06.668Z,22.92
2023-04-18T04:46:15.037Z,20.63
2023-04-18T04:49:21.988Z,21.48
2023-04-18T04:52:25.682Z,20.75
2023-04-18T04:55:32.844Z,20.80
2023-04-18T04:58:37.486Z,22.38
2023-04-18T05:01:53.602Z,21.08
2023-04-18T05:05:00.316Z,24.13
2023-04-18T05:08:04.879Z,18.88
2023-04-18T05:11:09.544Z,22.15
2023-04-18T05:14:13.469Z,17.63
2023-04-18T05:17:17.362Z,15.63
2023-04-18T05:20:22.566Z,17.50
2023-04-18T05:23:26.096Z,16.90
2023-04-18T05:26:30.910Z,17.45
2023-04-18T05:29:36.421Z,16.63
2023-04-18T05:32:41.463Z,11.95
2023-04-18T05:35:47.433Z,10.55
2023-04-18T05:38:52.281Z,16.38
2023-04-18T05:41:56.756Z,12.82
2023-04-18T05:45:04.089Z,13.70
2023-04-18T05:48:09.058Z,13.45
2023-04-18T05:51:14.145Z,15.77
2023-04-18T05:54:17.966Z,17.23
2023-04-18T05:57:22.586Z,11.63
2023-04-18T06:00:27.080Z,10.88
2023-04-18T06:03:31.164Z,15.43
2023-04-18T06:06:36.201Z,11.20
2023-04-18T06:09:40.029Z,10.02
2023-04-18T06:12:43.770Z,11.90
2023-04-18T06:15:47.831Z,12.27
2023-04-18T06:18:52.468Z,11.25
2023-04-18T06:21:57.470Z,16.02
2023-04-18T06:25:03.700Z,12.07
2023-04-18T06:28:07.948Z,11.23
2023-04-18T06:31:17.094Z,14.90
2023-04-18T06:34:22.595Z,24.13
2023-04-18T06:37:30.016Z,12.88
2023-04-18T06:40:33.849Z,11.75
2023-04-18T06:43:38.295Z,10.00
2023-04-18T06:46:42.103Z,11.63
2023-04-18T06:49:47.154Z,16.33
2023-04-18T06:52:52.287Z,10.73
2023-04-18T06:55:56.102Z,11.15
2023-04-18T06:58:59.905Z,9.55
2023-04-18T07:02:03.636Z,8.48
2023-04-18T07:05:08.000Z,6.72
2023-04-18T07:08:14.240Z,9.50
2023-04-18T07:11:18.570Z,10.50
2023-04-18T07:14:25.467Z,11.82
2023-04-18T07:17:31.979Z,10.88
2023-04-18T07:20:36.075Z,13.45
2023-04-18T07:23:42.706Z,13.55
2023-04-18T07:26:46.794Z,10.98
2023-04-18T07:29:51.053Z,11.98
2023-04-18T07:32:56.082Z,14.40
2023-04-18T07:36:01.818Z,14.80
2023-04-18T07:39:06.784Z,13.38
2023-04-18T07:42:11.856Z,14.13
2023-04-18T07:45:15.823Z,9.00
2023-04-18T07:48:22.265Z,16.35
2023-04-18T07:51:31.129Z,7.30
2023-04-18T07:54:36.026Z,11.02
2023-04-18T07:57:39.716Z,12.65
2023-04-18T08:00:45.036Z,8.77
2023-04-18T08:03:49.594Z,8.63
2023-04-18T08:06:53.788Z,7.65
2023-04-18T08:09:59.810Z,10.57
2023-04-18T08:13:04.508Z,8.93
2023-04-18T08:16:08.450Z,10.63
2023-04-18T08:19:12.068Z,9.23
2023-04-18T08:22:18.291Z,13.75
2023-04-18T08:25:24.196Z,7.53
2023-04-18T08:28:27.719Z,9.18
2023-04-18T08:31:32.032Z,6.55
2023-04-18T08:34:36.556Z,8.55
2023-04-18T08:37:43.569Z,9.57
2023-04-18T08:40:49.001Z,8.32
2023-04-18T08:43:55.158Z,7.18
2023-04-18T08:47:01.816Z,6.78
2023-04-18T08:50:05.734Z,5.35
2023-04-18T08:53:09.802Z,5.63
2023-04-18T08:56:15.119Z,6.47
2023-04-18T08:59:20.746Z,5.15
2023-04-18T09:02:35.789Z,5.25
2023-04-18T09:05:40.413Z,5.40
2023-04-18T09:08:44.797Z,4.72
2023-04-18T09:11:54.593Z,5.82
2023-04-18T09:15:10.850Z,3.33
2023-04-18T09:18:16.555Z,4.15
2023-04-18T09:21:20.541Z,5.13
2023-04-18T09:24:27.191Z,6.82
2023-04-18T09:27:36.441Z,6.10
2023-04-18T09:30:43.834Z,3.53
2023-04-18T09:33:54.050Z,5.50
2023-04-18T09:37:13.154Z,3.50
2023-04-18T09:40:18.925Z,3.10
2023-04-18T09:43:25.154Z,4.78
2023-04-18T09:46:29.486Z,4.82
2023-04-18T09:49:34.601Z,4.78
2023-04-18T09:52:40.236Z,4.53
2023-04-18T09:55:45.348Z,5.30
2023-04-18T09:58:53.036Z,5.47
2023-04-18T10:01:57.418Z,4.28
2023-04-18T10:05:02.988Z,5.55
2023-04-18T10:08:09.573Z,3.67
2023-04-18T10:11:14.595Z,4.13
2023-04-18T10:14:21.628Z,5.82
2023-04-18T10:17:29.404Z,3.70
2023-04-18T10:20:42.800Z,19.08
2023-04-18T10:23:48.848Z,7.93
2023-04-18T10:26:52.894Z,4.43
2023-04-18T10:30:00.798Z,5.63
2023-04-18T10:33:30.460Z,5.57
2023-04-18T10:36:39.165Z,8.27
2023-04-18T10:39:49.907Z,3.92
2023-04-18T10:43:00.503Z,4.25
2023-04-18T10:46:30.517Z,4.35
2023-04-18T10:49:39.060Z,6.28
2023-04-18T10:52:43.367Z,5.65
2023-04-18T10:55:52.460Z,3.75
2023-04-18T10:58:57.673Z,4.47
2023-04-18T11:02:07.613Z,7.28
2023-04-18T11:05:13.811Z,12.52
2023-04-18T11:08:26.126Z,8.13
2023-04-18T11:11:31.595Z,8.88
2023-04-18T11:14:43.321Z,7.47
2023-04-18T11:17:48.095Z,11.20
2023-04-18T11:20:52.578Z,11.32
2023-04-18T11:23:56.765Z,8.07
2023-04-18T11:27:02.522Z,9.15
2023-04-18T11:30:07.173Z,7.15
2023-04-18T11:33:12.811Z,11.70
2023-04-18T11:36:19.643Z,8.38
2023-04-18T11:39:24.026Z,4.88
2023-04-18T11:42:29.200Z,9.23
2023-04-18T11:45:32.806Z,6.18
2023-04-18T11:48:40.753Z,7.72
2023-04-18T11:51:46.245Z,12.02
2023-04-18T11:54:50.115Z,21.65
2023-04-18T11:57:54.491Z,8.10
2023-04-18T12:00:58.343Z,5.97
2023-04-18T12:04:07.881Z,14.65
2023-04-18T12:07:12.275Z,7.43
2023-04-18T12:10:25.901Z,8.07
2023-04-18T12:13:34.338Z,6.97
2023-04-18T12:16:41.249Z,6.43
2023-04-18T12:19:50.127Z,8.25
2023-04-18T12:22:54.908Z,7.28
2023-04-18T12:26:03.603Z,22.40
2023-04-18T12:29:11.558Z,7.88
2023-04-18T12:32:16.956Z,9.55
2023-04-18T12:35:22.380Z,6.18
2023-04-18T12:38:27.442Z,10.10
2023-04-18T12:41:31.878Z,7.88
2023-04-18T12:44:38.721Z,7.18
2023-04-18T12:47:42.727Z,7.32
2023-04-18T12:50:49.172Z,16.27
2023-04-18T12:53:52.807Z,10.18
2023-04-18T12:56:58.523Z,8.48
2023-04-18T13:00:10.143Z,6.93
2023-04-18T13:03:14.549Z,8.88
2023-04-18T13:06:19.960Z,30.10
2023-04-18T13:09:27.762Z,11.05
2023-04-18T13:12:34.199Z,9.32
2023-04-18T13:15:40.093Z,9.23
2023-04-18T13:18:46.783Z,8.35
2023-04-18T13:21:53.322Z,6.40
2023-04-18T13:24:58.862Z,9.38
2023-04-18T13:28:02.796Z,8.95
2023-04-18T13:31:07.313Z,12.02
2023-04-18T13:34:10.993Z,7.30
2023-04-18T13:37:16.954Z,12.77
2023-04-18T13:40:20.859Z,45.95
2023-04-18T13:43:24.942Z,17.85
2023-04-18T13:46:28.730Z,15.75
2023-04-18T13:49:32.810Z,13.38
2023-04-18T13:52:37.738Z,10.35
2023-04-18T13:55:41.548Z,10.35
2023-04-18T13:58:45.656Z,11.48
2023-04-18T14:01:51.594Z,10.20
2023-04-18T14:04:56.444Z,10.73
2023-04-18T14:08:04.127Z,12.68
2023-04-18T14:11:07.875Z,12.80
2023-04-18T14:14:11.648Z,8.90
2023-04-18T14:17:20.393Z,11.25
2023-04-18T14:20:26.384Z,7.82
2023-04-18T14:23:32.461Z,7.43
2023-04-18T14:26:36.239Z,6.35
2023-04-18T14:29:39.991Z,8.90
2023-04-18T14:32:47.075Z,7.22
2023-04-18T14:35:50.617Z,8.45
2023-04-18T14:38:57.207Z,8.73
2023-04-18T14:42:01.512Z,8.60
2023-04-18T14:45:10.990Z,8.77
2023-04-18T14:48:14.946Z,9.88
2023-04-18T14:51:20.697Z,6.53
2023-04-18T14:54:26.262Z,10.90
2023-04-18T14:57:31.477Z,8.73
2023-04-18T15:00:37.078Z,12.73
2023-04-18T15:03:41.642Z,5.63
2023-04-18T15:06:45.405Z,7.70
2023-04-18T15:09:50.680Z,9.77
2023-04-18T15:12:57.903Z,9.25
2023-04-18T15:16:03.356Z,3.95
2023-04-18T15:19:08.183Z,8.32
2023-04-18T15:22:14.517Z,5.22
2023-04-18T15:25:21.752Z,7.63
2023-04-18T15:28:26.648Z,7.38
2023-04-18T15:31:32.731Z,6.88
2023-04-18T15:34:36.311Z,6.95
2023-04-18T15:37:40.413Z,9.07
2023-04-18T15:40:45.686Z,12.77
2023-04-18T15:43:49.567Z,9.50
2023-04-18T15:46:53.256Z,6.82
2023-04-18T15:49:57.145Z,9.57
2023-04-18T15:53:00.788Z,9.02
2023-04-18T15:56:07.838Z,5.35
2023-04-18T15:59:13.009Z,13.48
2023-04-18T16:02:18.131Z,10.82
2023-04-18T16:05:23.035Z,12.30
2023-04-18T16:08:26.673Z,9.07
2023-04-18T16:11:33.314Z,9.52
2023-04-18T16:14:37.136Z,8.70
2023-04-18T16:17:40.704Z,14.55
2023-04-18T16:20:46.976Z,9.07
2023-04-18T16:23:50.908Z,8.18
2023-04-18T16:27:01.205Z,6.63
2023-04-18T16:30:05.314Z,8.32
2023-04-18T16:33:09.442Z,11.10
2023-04-18T16:36:16.507Z,8.82
2023-04-18T16:39:20.025Z,8.60
2023-04-18T16:42:29.505Z,9.93
2023-04-18T16:45:35.126Z,11.13
2023-04-18T16:48:38.689Z,8.73
2023-04-18T16:51:42.210Z,12.27
2023-04-18T16:54:46.858Z,7.57
2023-04-18T16:57:52.541Z,5.90
2023-04-18T17:00:58.263Z,10.57
2023-04-18T17:04:01.981Z,6.35
2023-04-18T17:07:07.974Z,4.97
2023-04-18T17:10:12.110Z,11.43
2023-04-18T17:13:17.010Z,4.75
2023-04-18T17:16:22.542Z,10.27
2023-04-18T17:19:27.194Z,5.68
2023-04-18T17:22:32.865Z,5.85
2023-04-18T17:25:40.105Z,9.18
2023-04-18T17:28:45.894Z,7.82
2023-04-18T17:31:50.324Z,8.50
2023-04-18T17:34:55.874Z,3.55
2023-04-18T17:37:59.723Z,8.90
2023-04-18T17:41:04.516Z,8.25
2023-04-18T17:44:11.028Z,11.27
2023-04-18T17:47:15.660Z,5.70
2023-04-18T17:50:20.446Z,6.72
2023-04-18T17:53:24.670Z,6.68
2023-04-18T17:56:30.393Z,7.38
2023-04-18T17:59:37.520Z,7.70
2023-04-18T18:02:42.242Z,7.05
2023-04-18T18:05:47.052Z,10.77
2023-04-18T18:08:50.468Z,8.30
2023-04-18T18:11:56.030Z,6.78
2023-04-18T18:15:02.897Z,11.05
2023-04-18T18:18:06.768Z,6.60
2023-04-18T18:21:11.373Z,16.02
2023-04-18T18:24:18.802Z,11.02
2023-04-18T18:27:22.369Z,10.93
2023-04-18T18:30:31.860Z,12.30
2023-04-18T18:33:41.064Z,8.57
2023-04-18T18:36:44.934Z,6.55
2023-04-18T18:39:52.209Z,8.70
2023-04-18T18:42:56.865Z,4.28
2023-04-18T18:46:02.549Z,8.25
2023-04-18T18:49:08.348Z,7.00
2023-04-18T18:52:13.676Z,7.88
2023-04-18T18:55:19.148Z,11.30
2023-04-18T18:58:23.826Z,8.20
2023-04-18T19:01:32.643Z,7.40
2023-04-18T19:04:36.360Z,8.57
2023-04-18T19:07:43.068Z,6.40
2023-04-18T19:10:48.673Z,10.40
2023-04-18T19:13:52.749Z,7.07
2023-04-18T19:16:58.221Z,4.70
2023-04-18T19:20:03.325Z,6.18
2023-04-18T19:23:17.033Z,6.32
2023-04-18T19:26:21.689Z,4.18
2023-04-18T19:29:26.577Z,8.15
2023-04-18T19:32:32.507Z,7.25
2023-04-18T19:35:37.908Z,8.25
2023-04-18T19:38:45.512Z,7.57
2023-04-18T19:41:50.065Z,9.73
2023-04-18T19:44:53.726Z,6.45
2023-04-18T19:48:00.321Z,11.63
2023-04-18T19:51:06.412Z,6.47
2023-04-18T19:54:09.751Z,5.70
2023-04-18T19:57:13.082Z,6.32
2023-04-18T20:00:17.212Z,8.63
2023-04-18T20:03:23.216Z,8.45
2023-04-18T20:06:27.357Z,7.28
2023-04-18T20:09:31.986Z,7.82
2023-04-18T20:12:35.772Z,9.65
2023-04-18T20:15:39.649Z,10.82
2023-04-18T20:18:47.446Z,5.00
2023-04-18T20:21:51.270Z,11.43
2023-04-18T20:24:57.552Z,9.57
2023-04-18T20:28:03.012Z,7.80
2023-04-18T20:31:09.779Z,10.50
2023-04-18T20:34:15.711Z,5.60
2023-04-18T20:37:22.902Z,6.68
2023-04-18T20:40:27.676Z,5.30
2023-04-18T20:43:36.671Z,9.23
2023-04-18T20:46:42.081Z,8.05
2023-04-18T20:50:01.074Z,9.45
2023-04-18T20:53:06.157Z,5.80
2023-04-18T20:56:13.322Z,6.47
2023-04-18T20:59:18.816Z,5.25
2023-04-18T21:02:22.426Z,7.50
2023-04-18T21:05:26.186Z,7.07
2023-04-18T21:08:31.663Z,3.90
2023-04-18T21:11:36.608Z,7.88
2023-04-18T21:14:40.564Z,7.82
2023-04-18T21:17:46.036Z,5.55
2023-04-18T21:20:52.825Z,7.35
2023-04-18T21:23:58.263Z,8.48
2023-04-18T21:27:03.348Z,11.10
2023-04-18T21:30:09.058Z,12.07
2023-04-18T21:33:12.861Z,8.30
2023-04-18T21:36:18.040Z,9.20
2023-04-18T21:39:23.116Z,7.60
2023-04-18T21:42:27.171Z,7.90
2023-04-18T21:45:33.654Z,6.70
2023-04-18T21:48:37.126Z,6.20
2023-04-18T21:51:40.760Z,6.88
2023-04-18T21:54:47.992Z,4.63
2023-04-18T21:57:51.703Z,7.97
2023-04-18T22:00:55.814Z,6.10
2023-04-18T22:04:00.710Z,8.05
2023-04-18T22:07:06.503Z,9.38
2023-04-18T22:10:11.869Z,14.43
2023-04-18T22:13:16.836Z,7.82
2023-04-18T22:16:21.912Z,9.15
2023-04-18T22:19:31.799Z,8.07
2023-04-18T22:22:36.035Z,10.63
2023-04-18T22:25:41.915Z,9.30
2023-04-18T22:28:45.904Z,13.57
2023-04-18T22:31:50.955Z,8.38
2023-04-18T22:34:55.609Z,9.43
2023-04-18T22:38:00.979Z,6.05
2023-04-18T22:41:07.990Z,17.60
2023-04-18T22:44:11.939Z,8.50
2023-04-18T22:47:16.392Z,5.88
2023-04-18T22:50:20.297Z,5.85
2023-04-18T22:53:23.951Z,8.55
2023-04-18T22:56:29.587Z,5.32
2023-04-18T22:59:34.124Z,11.88
2023-04-18T23:02:40.854Z,7.97
2023-04-18T23:05:44.452Z,7.75
2023-04-18T23:08:47.936Z,6.25
2023-04-18T23:11:54.237Z,5.20
2023-04-18T23:14:57.985Z,10.02
2023-04-18T23:18:02.287Z,8.43
2023-04-18T23:21:06.862Z,8.32
2023-04-18T23:24:12.134Z,11.55
2023-04-18T23:27:17.409Z,8.18
2023-04-18T23:30:21.035Z,6.35
2023-04-18T23:33:24.575Z,6.68
2023-04-18T23:36:29.593Z,14.15
2023-04-18T23:39:35.714Z,7.85
2023-04-18T23:42:42.310Z,9.82
2023-04-18T23:45:46.246Z,8.50
2023-04-18T23:48:49.764Z,8.73
2023-04-18T23:51:53.659Z,5.05
2023-04-18T23:54:56.940Z,8.60
2023-04-18T23:58:01.975Z,4.13
